createdAt,value
2018-02-27T00:00:13.463Z,98510.34
2018-02-27T00:02:41.774Z,98508.21
2018-02-27T00:05:10.095Z,98507.48
2018-02-27T00:07:38.408Z,98505.31
2018-02-27T00:10:06.755Z,98503.42
2018-02-27T00:12:35.084Z,98500.91
2018-02-27T00:15:04.194Z,98502.70
2018-02-27T00:17:32.519Z,98496.67
2018-02-27T00:20:00.938Z,98504.52
2018-02-27T00:22:30.050Z,98502.58
2018-02-27T00:24:58.379Z,98499.81
2018-02-27T00:27:26.731Z,98493.86
2018-02-27T00:29:55.056Z,98489.91
2018-02-27T00:32:24.144Z,98487.77
2018-02-27T00:34:52.450Z,98490.04
2018-02-27T00:37:20.803Z,98489.93
2018-02-27T00:39:49.910Z,98487.77
2018-02-27T00:42:19.007Z,98482.80
2018-02-27T00:44:48.071Z,98480.64
2018-02-27T00:47:16.391Z,98484.03
2018-02-27T00:49:44.787Z,98477.78
2018-02-27T00:52:13.123Z,98473.67
2018-02-27T00:54:41.447Z,98477.22
2018-02-27T00:57:09.800Z,98477.22
2018-02-27T00:59:38.116Z,98476.98
2018-02-27T01:02:06.458Z,98467.35
2018-02-27T01:04:34.798Z,98462.73
2018-02-27T01:07:03.102Z,98459.84
2018-02-27T01:09:31.427Z,98461.14
2018-02-27T01:11:59.779Z,98458.69
2018-02-27T01:14:28.121Z,98450.48
2018-02-27T01:16:56.544Z,98455.75
2018-02-27T01:19:24.927Z,98450.34
2018-02-27T01:21:53.247Z,98455.80
2018-02-27T01:24:21.614Z,98454.34
2018-02-27T01:26:49.931Z,98451.08
2018-02-27T01:29:18.270Z,98448.39
2018-02-27T01:31:46.592Z,98452.12
2018-02-27T01:34:14.922Z,98455.08
2018-02-27T01:36:43.255Z,98447.16
2018-02-27T01:39:11.665Z,98447.45
2018-02-27T01:41:40.003Z,98449.19
2018-02-27T01:44:08.420Z,98453.42
2018-02-27T01:46:36.763Z,98444.64
2018-02-27T01:49:05.102Z,98445.72
2018-02-27T01:51:34.195Z,98442.31
2018-02-27T01:54:03.287Z,98444.56
2018-02-27T01:56:31.624Z,98440.03
2018-02-27T01:58:59.958Z,98438.12
2018-02-27T02:01:29.074Z,98437.97
2018-02-27T02:03:57.407Z,98427.05
2018-02-27T02:06:25.742Z,98420.91
2018-02-27T02:08:54.131Z,98421.66
2018-02-27T02:11:22.455Z,98423.37
2018-02-27T02:13:51.579Z,98426.12
2018-02-27T02:16:19.927Z,98420.17
2018-02-27T02:18:48.260Z,98414.59
2018-02-27T02:21:16.596Z,98410.15
2018-02-27T02:23:45.704Z,98406.66
2018-02-27T02:26:14.022Z,98405.58
2018-02-27T02:28:42.351Z,98406.47
2018-02-27T02:31:10.691Z,98404.54
2018-02-27T02:33:39.047Z,98400.17
2018-02-27T02:36:07.406Z,98389.45
2018-02-27T02:38:35.779Z,98391.05
2018-02-27T02:41:04.100Z,98389.77
2018-02-27T02:43:32.426Z,98389.10
2018-02-27T02:46:00.735Z,98391.59
2018-02-27T02:48:35.420Z,98386.56
2018-02-27T02:51:03.794Z,98379.70
2018-02-27T02:53:32.091Z,98382.55
2018-02-27T02:56:00.416Z,98385.02
2018-02-27T02:58:28.775Z,98388.77
2018-02-27T03:00:57.104Z,98380.62
2018-02-27T03:03:25.435Z,98381.42
2018-02-27T03:05:53.864Z,98379.52
2018-02-27T03:08:22.190Z,98379.10
2018-02-27T03:10:50.550Z,98383.45
2018-02-27T03:13:18.885Z,98373.44
2018-02-27T03:15:47.297Z,98375.11
2018-02-27T03:18:15.659Z,98373.37
2018-02-27T03:20:43.982Z,98374.06
2018-02-27T03:23:12.303Z,98367.44
2018-02-27T03:25:40.634Z,98367.95
2018-02-27T03:28:08.983Z,98367.38
2018-02-27T03:30:37.332Z,98366.46
2018-02-27T03:33:06.460Z,98366.55
2018-02-27T03:35:34.799Z,98366.92
2018-02-27T03:38:03.933Z,98362.70
2018-02-27T03:40:32.301Z,98361.83
2018-02-27T03:43:00.650Z,98360.48
2018-02-27T03:45:29.738Z,98359.80
2018-02-27T03:47:58.077Z,98360.41
2018-02-27T03:50:26.424Z,98359.50
2018-02-27T03:52:54.755Z,98360.42
2018-02-27T03:55:23.098Z,98356.91
2018-02-27T03:57:51.423Z,98361.91
2018-02-27T04:00:19.769Z,98351.00
2018-02-27T04:02:48.094Z,98352.82
2018-02-27T04:05:16.428Z,98346.70
2018-02-27T04:07:44.778Z,98348.47
2018-02-27T04:10:13.208Z,98343.80
2018-02-27T04:12:41.589Z,98333.68
2018-02-27T04:15:10.686Z,98340.83
2018-02-27T04:17:39.783Z,98338.08
2018-02-27T04:20:08.899Z,98334.13
2018-02-27T04:22:37.239Z,98333.02
2018-02-27T04:25:05.649Z,98340.02
2018-02-27T04:27:34.745Z,98333.88
2018-02-27T04:30:03.071Z,98332.88
2018-02-27T04:32:31.446Z,98335.15
2018-02-27T04:34:59.785Z,98336.66
2018-02-27T04:37:28.127Z,98335.05
2018-02-27T04:39:56.463Z,98339.30
2018-02-27T04:42:24.798Z,98330.75
2018-02-27T04:44:53.881Z,98337.92
2018-02-27T04:47:22.227Z,98342.20
2018-02-27T04:49:50.580Z,98341.72
2018-02-27T04:52:19.047Z,98333.49
2018-02-27T04:54:47.387Z,98337.96
2018-02-27T04:57:15.735Z,98330.84
2018-02-27T04:59:44.076Z,98330.53
2018-02-27T05:02:12.514Z,98334.66
2018-02-27T05:04:40.867Z,98330.36
2018-02-27T05:07:09.207Z,98332.06
2018-02-27T05:09:38.398Z,98334.09
2018-02-27T05:12:06.713Z,98331.33
2018-02-27T05:14:35.075Z,98330.88
2018-02-27T05:17:03.499Z,98329.77
2018-02-27T05:19:31.843Z,98324.84
2018-02-27T05:22:00.203Z,98330.06
2018-02-27T05:24:28.555Z,98332.77
2018-02-27T05:26:57.698Z,98327.73
2018-02-27T05:29:26.099Z,98323.58
2018-02-27T05:31:54.498Z,98330.36
2018-02-27T05:34:22.838Z,98330.72
2018-02-27T05:36:51.193Z,98335.23
2018-02-27T05:39:19.527Z,98325.84
2018-02-27T05:41:47.896Z,98331.94
2018-02-27T05:44:16.230Z,98333.22
2018-02-27T05:46:44.570Z,98332.53
2018-02-27T05:49:12.954Z,98338.39
2018-02-27T05:51:42.036Z,98334.67
2018-02-27T05:54:10.421Z,98338.83
2018-02-27T05:56:38.783Z,98335.25
2018-02-27T05:59:07.118Z,98342.16
2018-02-27T06:01:35.501Z,98335.80
2018-02-27T06:04:03.848Z,98346.11
2018-02-27T06:06:32.168Z,98349.14
2018-02-27T06:09:00.543Z,98357.44
2018-02-27T06:11:29.662Z,98351.11
2018-02-27T06:13:58.015Z,98352.30
2018-02-27T06:16:26.386Z,98359.41
2018-02-27T06:18:54.696Z,98356.16
2018-02-27T06:21:23.051Z,98357.16
2018-02-27T06:23:51.375Z,98354.94
2018-02-27T06:26:20.486Z,98357.06
2018-02-27T06:28:49.611Z,98359.95
2018-02-27T06:31:17.998Z,98349.03
2018-02-27T06:33:46.376Z,98354.52
2018-02-27T06:36:14.770Z,98354.73
2018-02-27T06:38:43.086Z,98356.63
2018-02-27T06:41:11.423Z,98356.71
2018-02-27T06:43:39.739Z,98351.91
2018-02-27T06:46:08.833Z,98348.38
2018-02-27T06:48:37.862Z,98350.13
2018-02-27T06:51:06.621Z,98351.75
2018-02-27T06:53:35.761Z,98352.13
2018-02-27T06:56:04.887Z,98354.36
2018-02-27T06:58:33.233Z,98350.89
2018-02-27T07:01:02.333Z,98346.74
2018-02-27T07:03:31.447Z,98357.28
2018-02-27T07:05:59.849Z,98356.70
2018-02-27T07:08:28.195Z,98354.67
2018-02-27T07:10:56.558Z,98348.05
2018-02-27T07:13:24.913Z,98351.53
2018-02-27T07:15:53.284Z,98350.02
2018-02-27T07:18:21.612Z,98342.42
2018-02-27T07:20:49.959Z,98346.09
2018-02-27T07:23:18.312Z,98349.17
2018-02-27T07:25:46.643Z,98352.30
2018-02-27T07:28:14.979Z,98345.16
2018-02-27T07:30:43.313Z,98342.17
2018-02-27T07:33:11.661Z,98342.40
2018-02-27T07:35:40.053Z,98344.59
2018-02-27T07:38:08.403Z,98337.19
2018-02-27T07:40:36.734Z,98343.20
2018-02-27T07:43:05.848Z,98349.94
2018-02-27T07:45:34.188Z,98345.76
2018-02-27T07:48:02.532Z,98353.02
2018-02-27T07:50:30.871Z,98352.88
2018-02-27T07:52:59.998Z,98360.05
2018-02-27T07:55:28.342Z,98359.40
2018-02-27T07:57:56.711Z,98359.09
2018-02-27T08:00:25.815Z,98356.52
2018-02-27T08:02:54.983Z,98358.09
2018-02-27T08:05:23.332Z,98358.12
2018-02-27T08:07:51.671Z,98361.46
2018-02-27T08:10:20.799Z,98354.55
2018-02-27T08:12:49.147Z,98354.28
2018-02-27T08:15:18.345Z,98355.17
2018-02-27T08:17:46.685Z,98349.50
2018-02-27T08:20:15.042Z,98349.13
2018-02-27T08:22:43.353Z,98355.59
2018-02-27T08:25:11.682Z,98354.27
2018-02-27T08:27:40.032Z,98356.02
2018-02-27T08:30:08.379Z,98351.89
2018-02-27T08:32:36.797Z,98354.23
2018-02-27T08:35:05.151Z,98352.16
2018-02-27T08:37:34.275Z,98347.05
2018-02-27T08:40:02.696Z,98348.77
2018-02-27T08:42:31.031Z,98345.52
2018-02-27T08:44:59.400Z,98342.16
2018-02-27T08:47:27.866Z,98348.02
2018-02-27T08:49:56.275Z,98351.17
2018-02-27T08:52:24.755Z,98350.17
2018-02-27T08:54:53.079Z,98355.52
2018-02-27T08:57:21.427Z,98347.97
2018-02-27T08:59:49.766Z,98346.02
2018-02-27T09:02:18.144Z,98345.27
2018-02-27T09:04:47.259Z,98343.48
2018-02-27T09:07:15.656Z,98336.37
2018-02-27T09:09:44.087Z,98335.79
2018-02-27T09:12:12.443Z,98330.62
2018-02-27T09:14:40.818Z,98326.42
2018-02-27T09:17:09.113Z,98322.75
2018-02-27T09:19:37.451Z,98319.09
2018-02-27T09:22:05.765Z,98321.51
2018-02-27T09:24:34.130Z,98318.52
2018-02-27T09:27:02.475Z,98317.02
2018-02-27T09:29:30.812Z,98309.03
2018-02-27T09:31:59.922Z,98308.65
2018-02-27T09:34:28.287Z,98311.91
2018-02-27T09:36:57.451Z,98301.91
2018-02-27T09:39:25.773Z,98300.52
2018-02-27T09:41:54.099Z,98295.08
2018-02-27T09:44:22.455Z,98293.87
2018-02-27T09:46:50.787Z,98289.97
2018-02-27T09:49:19.956Z,98293.41
2018-02-27T09:51:48.300Z,98288.34
2018-02-27T09:54:16.629Z,98288.95
2018-02-27T09:56:45.753Z,98287.02
2018-02-27T09:59:14.110Z,98286.84
2018-02-27T10:01:43.233Z,98281.39
2018-02-27T10:04:11.671Z,98275.80
2018-02-27T10:06:40.032Z,98286.02
2018-02-27T10:09:08.355Z,98280.47
2018-02-27T10:11:36.682Z,98287.33
2018-02-27T10:14:05.021Z,98273.73
2018-02-27T10:16:33.354Z,98279.27
2018-02-27T10:19:01.714Z,98272.55
2018-02-27T10:21:30.055Z,98272.94
2018-02-27T10:23:58.484Z,98271.79
2018-02-27T10:26:26.823Z,98276.05
2018-02-27T10:28:55.155Z,98273.13
2018-02-27T10:31:23.532Z,98270.60
2018-02-27T10:33:51.836Z,98272.47
2018-02-27T10:36:20.164Z,98279.69
2018-02-27T10:38:48.487Z,98274.25
2018-02-27T10:41:16.920Z,98270.65
2018-02-27T10:43:45.251Z,98269.44
2018-02-27T10:46:13.601Z,98266.32
2018-02-27T10:48:42.697Z,98269.61
2018-02-27T10:51:11.813Z,98259.36
2018-02-27T10:53:40.227Z,98258.47
2018-02-27T10:56:08.579Z,98253.06
2018-02-27T10:58:36.941Z,98261.90
2018-02-27T11:01:11.727Z,98261.45
2018-02-27T11:03:40.079Z,98255.31
2018-02-27T11:06:08.433Z,98256.69
2018-02-27T11:08:36.824Z,98254.95
2018-02-27T11:11:05.184Z,98252.12
2018-02-27T11:13:33.519Z,98246.04
2018-02-27T11:16:01.855Z,98239.05
2018-02-27T11:18:30.195Z,98234.69
2018-02-27T11:20:59.322Z,98235.13
2018-02-27T11:23:27.654Z,98226.05
2018-02-27T11:25:56.011Z,98227.55
2018-02-27T11:28:24.343Z,98231.20
2018-02-27T11:30:52.667Z,98233.28
2018-02-27T11:33:21.034Z,98223.16
2018-02-27T11:35:49.392Z,98213.36
2018-02-27T11:38:17.711Z,98218.72
2018-02-27T11:40:46.045Z,98218.88
2018-02-27T11:43:14.363Z,98217.08
2018-02-27T11:45:42.986Z,98227.22
2018-02-27T11:48:11.308Z,98213.54
2018-02-27T11:50:39.662Z,98211.87
2018-02-27T11:53:08.107Z,98212.48
2018-02-27T11:55:36.451Z,98201.86
2018-02-27T11:58:05.562Z,98204.91
2018-02-27T12:00:33.904Z,98197.23
2018-02-27T12:03:02.251Z,98195.85
2018-02-27T12:05:30.583Z,98197.52
2018-02-27T12:07:58.911Z,98188.70
2018-02-27T12:10:27.248Z,98191.00
2018-02-27T12:12:55.580Z,98187.72
2018-02-27T12:15:23.963Z,98184.08
2018-02-27T12:17:53.093Z,98178.48
2018-02-27T12:20:21.451Z,98187.02
2018-02-27T12:22:50.566Z,98176.26
2018-02-27T12:25:18.905Z,98179.09
2018-02-27T12:27:47.263Z,98173.39
2018-02-27T12:30:15.653Z,98167.02
2018-02-27T12:32:43.967Z,98163.95
2018-02-27T12:35:12.303Z,98163.93
2018-02-27T12:37:40.627Z,98166.56
2018-02-27T12:40:08.955Z,98155.55
2018-02-27T12:42:37.279Z,98151.52
2018-02-27T12:45:05.611Z,98155.17
2018-02-27T12:47:33.959Z,98144.42
2018-02-27T12:50:02.316Z,98143.83
2018-02-27T12:52:30.702Z,98144.09
2018-02-27T12:54:59.043Z,98139.45
2018-02-27T12:57:27.351Z,98140.16
2018-02-27T12:59:55.642Z,98141.48
2018-02-27T13:02:24.006Z,98127.22
2018-02-27T13:04:52.388Z,98125.22
2018-02-27T13:07:20.708Z,98125.77
2018-02-27T13:09:49.018Z,98127.23
2018-02-27T13:12:17.370Z,98119.58
2018-02-27T13:14:45.707Z,98111.11
2018-02-27T13:17:14.034Z,98111.73
2018-02-27T13:19:42.355Z,98117.53
2018-02-27T13:22:10.683Z,98104.64
2018-02-27T13:24:38.989Z,98108.99
2018-02-27T13:27:07.343Z,98106.54
2018-02-27T13:29:35.693Z,98106.60
2018-02-27T13:32:04.075Z,98102.33
2018-02-27T13:34:32.414Z,98092.47
2018-02-27T13:37:00.756Z,98091.95
2018-02-27T13:39:29.108Z,98094.16
2018-02-27T13:41:57.432Z,98101.66
2018-02-27T13:44:25.757Z,98099.50
2018-02-27T13:46:54.836Z,98089.25
2018-02-27T13:49:25.040Z,98096.56
2018-02-27T13:51:53.051Z,98098.53
2018-02-27T13:54:21.435Z,98099.17
2018-02-27T13:56:49.758Z,98088.16
2018-02-27T13:59:18.109Z,98091.45
2018-02-27T14:01:46.466Z,98092.89
2018-02-27T14:04:14.804Z,98090.80
2018-02-27T14:06:43.119Z,98089.66
2018-02-27T14:09:11.475Z,98092.35
2018-02-27T14:11:39.811Z,98084.39
2018-02-27T14:14:08.150Z,98087.19
2018-02-27T14:16:36.504Z,98091.48
2018-02-27T14:19:05.612Z,98084.12
2018-02-27T14:21:33.951Z,98084.58
2018-02-27T14:24:02.297Z,98085.06
2018-02-27T14:26:30.685Z,98080.26
2018-02-27T14:28:59.713Z,98075.53
2018-02-27T14:31:28.049Z,98079.54
2018-02-27T14:33:56.387Z,98082.52
2018-02-27T14:36:24.740Z,98086.04
2018-02-27T14:38:53.131Z,98075.34
2018-02-27T14:41:21.464Z,98077.12
2018-02-27T14:43:49.771Z,98085.38
2018-02-27T14:46:18.113Z,98080.02
2018-02-27T14:48:46.427Z,98079.95
2018-02-27T14:51:14.766Z,98082.98
2018-02-27T14:53:43.111Z,98085.12
2018-02-27T14:56:12.237Z,98080.06
2018-02-27T14:58:40.570Z,98084.09
2018-02-27T15:01:08.915Z,98071.50
2018-02-27T15:03:37.245Z,98071.68
2018-02-27T15:06:05.590Z,98076.12
2018-02-27T15:08:33.943Z,98072.39
2018-02-27T15:11:02.268Z,98072.91
2018-02-27T15:13:31.369Z,98081.39
2018-02-27T15:15:59.802Z,98072.82
2018-02-27T15:18:28.162Z,98077.78
2018-02-27T15:20:56.503Z,98071.62
2018-02-27T15:23:24.823Z,98066.52
2018-02-27T15:25:53.160Z,98067.44
2018-02-27T15:28:21.491Z,98066.16
2018-02-27T15:30:49.842Z,98064.67
2018-02-27T15:33:18.207Z,98073.14
2018-02-27T15:35:46.550Z,98068.53
2018-02-27T15:38:15.643Z,98076.99
2018-02-27T15:40:44.749Z,98070.92
2018-02-27T15:43:13.870Z,98070.72
2018-02-27T15:45:42.207Z,98074.31
2018-02-27T15:48:10.548Z,98070.88
2018-02-27T15:50:38.868Z,98077.86
2018-02-27T15:53:07.966Z,98080.47
2018-02-27T15:55:37.081Z,98084.23
2018-02-27T15:58:05.418Z,98081.75
2018-02-27T16:00:33.743Z,98079.86
2018-02-27T16:03:02.076Z,98075.03
2018-02-27T16:05:30.422Z,98074.84
2018-02-27T16:07:58.785Z,98079.95
2018-02-27T16:10:27.138Z,98084.61
2018-02-27T16:12:55.471Z,98078.63
2018-02-27T16:15:23.815Z,98082.21
2018-02-27T16:17:52.154Z,98083.22
2018-02-27T16:20:20.496Z,98085.64
2018-02-27T16:22:48.814Z,98075.70
2018-02-27T16:25:17.903Z,98073.52
2018-02-27T16:27:46.239Z,98082.40
2018-02-27T16:30:14.571Z,98084.92
2018-02-27T16:32:43.689Z,98088.14
2018-02-27T16:35:12.031Z,98090.23
2018-02-27T16:37:41.126Z,98093.40
2018-02-27T16:40:09.430Z,98096.86
2018-02-27T16:42:37.756Z,98099.55
2018-02-27T16:45:06.092Z,98101.38
2018-02-27T16:47:34.442Z,98095.09
2018-02-27T16:50:03.530Z,98106.55
2018-02-27T16:52:31.855Z,98102.21
2018-02-27T16:55:00.195Z,98103.92
2018-02-27T16:57:28.565Z,98110.41
2018-02-27T16:59:57.681Z,98108.35
2018-02-27T17:02:26.019Z,98107.62
2018-02-27T17:04:54.351Z,98111.67
2018-02-27T17:07:22.616Z,98130.84
2018-02-27T17:09:50.891Z,98130.16
2018-02-27T17:12:19.227Z,98125.63
2018-02-27T17:14:47.442Z,98134.35
2018-02-27T17:17:15.745Z,98135.36
2018-02-27T17:19:44.023Z,98139.22
2018-02-27T17:22:12.287Z,98144.82
2018-02-27T17:24:40.551Z,98136.38
2018-02-27T17:27:08.806Z,98139.35
2018-02-27T17:29:37.834Z,98147.48
2018-02-27T17:32:06.077Z,98140.97
2018-02-27T17:34:35.108Z,98156.39
2018-02-27T17:37:03.360Z,98148.26
2018-02-27T17:39:31.625Z,98155.13
2018-02-27T17:42:00.653Z,98156.86
2018-02-27T17:44:28.934Z,98155.86
2018-02-27T17:46:57.206Z,98161.32
2018-02-27T17:49:25.461Z,98160.78
2018-02-27T17:51:53.718Z,98153.89
2018-02-27T17:54:22.740Z,98158.35
2018-02-27T17:56:53.003Z,98163.20
2018-02-27T17:59:21.252Z,98155.80
2018-02-27T18:01:51.620Z,98160.54
2018-02-27T18:04:20.703Z,98158.80
2018-02-27T18:06:48.922Z,98161.30
2018-02-27T18:09:17.171Z,98162.95
2018-02-27T18:11:46.200Z,98161.29
2018-02-27T18:14:14.454Z,98164.21
2018-02-27T18:16:42.716Z,98159.66
2018-02-27T18:19:11.739Z,98165.09
2018-02-27T18:21:41.993Z,98161.63
2018-02-27T18:24:11.052Z,98169.23
2018-02-27T18:26:39.341Z,98163.95
2018-02-27T18:29:08.077Z,98165.41
2018-02-27T18:31:38.403Z,98165.52
2018-02-27T18:34:06.711Z,98162.80
2018-02-27T18:36:35.371Z,98166.50
2018-02-27T18:39:03.619Z,98161.64
2018-02-27T18:41:33.059Z,98165.98
2018-02-27T18:44:29.116Z,98163.90
2018-02-27T18:47:00.492Z,98159.92
2018-02-27T18:49:28.798Z,98158.85
2018-02-27T18:51:57.878Z,98161.53
2018-02-27T18:54:26.142Z,98161.16
2018-02-27T18:56:54.419Z,98160.02
2018-02-27T18:59:22.679Z,98163.08
2018-02-27T19:01:50.935Z,98163.69
2018-02-27T19:04:19.196Z,98167.22
2018-02-27T19:06:47.451Z,98167.01
2018-02-27T19:09:16.488Z,98170.23
2018-02-27T19:11:44.749Z,98172.06
2018-02-27T19:14:13.007Z,98176.53
2018-02-27T19:16:42.031Z,98177.92
2018-02-27T19:19:10.296Z,98177.55
2018-02-27T19:21:38.563Z,98183.33
2018-02-27T19:24:06.818Z,98184.05
2018-02-27T19:26:35.844Z,98184.52
2018-02-27T19:29:04.114Z,98183.77
2018-02-27T19:31:32.378Z,98186.34
2018-02-27T19:34:01.405Z,98188.05
2018-02-27T19:36:29.703Z,98190.04
2018-02-27T19:38:57.975Z,98190.80
2018-02-27T19:41:26.237Z,98191.53
2018-02-27T19:43:54.497Z,98194.97
2018-02-27T19:46:22.822Z,98200.19
2018-02-27T19:48:51.083Z,98199.55
2018-02-27T19:51:19.332Z,98205.41
2018-02-27T19:53:47.605Z,98206.46
2018-02-27T19:56:15.933Z,98209.61
2018-02-27T19:58:44.969Z,98203.67
2018-02-27T20:01:13.234Z,98209.09
2018-02-27T20:03:41.488Z,98207.22
2018-02-27T20:06:10.614Z,98211.38
2018-02-27T20:08:38.878Z,98211.98
2018-02-27T20:11:07.376Z,98209.82
2018-02-27T20:13:35.855Z,98213.89
2018-02-27T20:16:04.140Z,98211.64
2018-02-27T20:18:32.402Z,98210.87
2018-02-27T20:21:00.665Z,98211.85
2018-02-27T20:23:34.606Z,98212.28
2018-02-27T20:26:02.884Z,98214.86
2018-02-27T20:31:35.933Z,98209.44
2018-02-27T20:34:04.193Z,98215.92
2018-02-27T20:36:33.212Z,98210.36
2018-02-27T20:39:07.726Z,98217.07
2018-02-27T20:41:36.733Z,98214.47
2018-02-27T20:44:04.991Z,98214.23
2018-02-27T20:46:34.031Z,98209.09
2018-02-27T20:49:02.301Z,98210.02
2018-02-27T20:51:30.544Z,98213.88
2018-02-27T20:53:59.573Z,98218.79
2018-02-27T20:56:27.882Z,98217.86
2018-02-27T20:58:56.149Z,98213.95
2018-02-27T21:01:24.410Z,98213.36
2018-02-27T21:03:52.674Z,98218.41
2018-02-27T21:06:20.932Z,98216.23
2018-02-27T21:08:49.190Z,98213.97
2018-02-27T21:11:18.211Z,98213.59
2018-02-27T21:13:46.476Z,98210.87
2018-02-27T21:16:14.731Z,98221.64
2018-02-27T21:18:43.764Z,98217.77
2018-02-27T21:21:12.038Z,98215.83
2018-02-27T21:23:40.302Z,98216.25
2018-02-27T21:26:08.580Z,98221.80
2018-02-27T21:28:36.863Z,98222.67
2018-02-27T21:31:05.859Z,98225.67
2018-02-27T21:33:34.124Z,98223.56
2018-02-27T21:36:02.392Z,98229.20
2018-02-27T21:38:30.646Z,98230.16
2018-02-27T21:40:59.703Z,98231.02
2018-02-27T21:43:27.978Z,98238.16
2018-02-27T21:45:56.248Z,98237.52
2018-02-27T21:48:24.499Z,98239.44
2018-02-27T21:50:52.767Z,98234.30
2018-02-27T21:53:21.028Z,98237.98
2018-02-27T21:55:50.050Z,98234.46
2018-02-27T21:58:18.311Z,98235.84
2018-02-27T22:00:46.575Z,98234.48
2018-02-27T22:03:15.603Z,98239.67
2018-02-27T22:05:43.867Z,98237.70
2018-02-27T22:08:12.121Z,98241.86
2018-02-27T22:10:41.160Z,98238.85
2018-02-27T22:13:09.416Z,98239.96
2018-02-27T22:15:37.795Z,98247.35
2018-02-27T22:18:06.051Z,98248.65
2018-02-27T22:20:34.314Z,98247.14
2018-02-27T22:23:03.356Z,98254.66
2018-02-27T22:25:31.612Z,98250.80
2018-02-27T22:27:59.866Z,98249.44
2018-02-27T22:30:28.904Z,98247.98
2018-02-27T22:32:57.155Z,98249.95
2018-02-27T22:35:25.430Z,98254.50
2018-02-27T22:37:53.683Z,98251.62
2018-02-27T22:40:22.723Z,98254.59
2018-02-27T22:42:50.975Z,98256.98
2018-02-27T22:45:19.229Z,98257.45
2018-02-27T22:47:48.259Z,98260.87
2018-02-27T22:50:16.518Z,98258.22
2018-02-27T22:52:44.782Z,98264.88
2018-02-27T22:55:13.111Z,98261.20
2018-02-27T22:57:42.172Z,98264.47
2018-02-27T23:00:10.426Z,98262.56
2018-02-27T23:02:39.543Z,98267.77
2018-02-27T23:05:07.887Z,98267.86
2018-02-27T23:07:36.997Z,98266.27
2018-02-27T23:10:06.042Z,98265.09
2018-02-27T23:12:34.349Z,98269.20
2018-02-27T23:15:03.429Z,98272.73
2018-02-27T23:17:32.553Z,98269.91
2018-02-27T23:20:01.720Z,98271.70
2018-02-27T23:22:30.163Z,98270.77
2018-02-27T23:25:03.143Z,98270.25
2018-02-27T23:27:31.548Z,98281.81
2018-02-27T23:29:59.905Z,98277.29
2018-02-27T23:32:28.258Z,98280.02
2018-02-27T23:34:57.428Z,98279.50
2018-02-27T23:37:25.738Z,98279.45
2018-02-27T23:39:54.033Z,98275.78
2018-02-27T23:42:22.319Z,98277.91
2018-02-27T23:44:50.616Z,98277.29
2018-02-27T23:47:18.933Z,98279.59
2018-02-27T23:49:47.237Z,98275.83
2018-02-27T23:52:15.531Z,98279.55
2018-02-27T23:54:43.832Z,98272.25
2018-02-27T23:57:12.132Z,98273.80
2018-02-27T23:59:41.170Z,98271.95
